Time;durP1;ratioP1;P1;durP2;ratioP2;P2;SDS_P1;SDS_P2;PMS_P1;PMS_P2;Temp;Humidity;BMP_temperature;BMP_pressure;BME280_temperature;BME280_humidity;BME280_pressure;Samples;Min_cycle;Max_cycle;Signal;HPM_P1;HPM_P2
2023/11/18 00:00:42;;;;;;;2.22;1.52;;;;;;;4.17;96.52;149716.34;10632691;27;20049;-71
2023/11/18 00:05:44;;;;;;;2.28;1.50;;;;;;;4.19;95.16;149721.47;10614234;27;20059;-71
2023/11/18 00:10:47;;;;;;;2.67;1.38;;;;;;;4.04;96.35;149685.50;10613869;27;20043;-70
2023/11/18 00:15:49;;;;;;;2.70;1.50;;;;;;;3.87;97.65;149641.84;10633092;27;20042;-70
2023/11/18 00:20:51;;;;;;;2.25;1.40;;;;;;;3.89;96.90;149646.97;10632446;27;20404;-71
2023/11/18 00:25:53;;;;;;;2.08;1.30;;;;;;;3.92;96.87;149654.69;10614624;27;20074;-70
2023/11/18 00:30:55;;;;;;;1.80;1.63;;;;;;;3.95;95.71;149662.41;10613993;27;20051;-70
2023/11/18 00:35:57;;;;;;;1.70;1.08;;;;;;;3.81;97.94;149626.44;10631589;27;20042;-70
2023/11/18 00:41:00;;;;;;;1.75;1.45;;;;;;;3.82;96.55;149627.72;10614096;27;20055;-71
2023/11/18 00:46:03;;;;;;;3.00;2.30;;;;;;;3.77;97.86;149616.16;10613427;27;20046;-71
2023/11/18 00:51:08;;;;;;;3.38;2.30;;;;;;;3.92;97.31;149653.41;10612803;27;20095;-70
2023/11/18 00:56:15;;;;;;;2.45;2.08;;;;;;;3.90;98.19;149649.56;10631144;27;20065;-70
2023/11/18 01:01:18;;;;;;;2.55;2.10;;;;;;;3.88;98.43;149644.41;10612721;27;20043;-70
2023/11/18 01:06:20;;;;;;;2.08;1.88;;;;;;;3.80;99.81;149623.84;10630472;27;20115;-71
2023/11/18 01:11:22;;;;;;;2.78;2.35;;;;;;;3.86;99.82;149639.28;10630873;27;20035;-70
2023/11/18 01:16:24;;;;;;;2.10;1.90;;;;;;;3.95;97.62;149661.13;10630350;27;20049;-71
2023/11/18 01:21:27;;;;;;;2.30;1.85;;;;;;;3.90;97.81;149649.56;10629316;27;20043;-71
2023/11/18 01:26:29;;;;;;;1.88;1.55;;;;;;;3.95;96.59;149662.41;10630238;27;20053;-71
2023/11/18 01:31:31;;;;;;;2.33;1.98;;;;;;;3.83;97.78;149631.56;10629966;27;20100;-71
2023/11/18 01:36:49;;;;;;;2.08;1.40;;;;;;;3.79;98.00;149622.56;10629044;27;20070;-71
2023/11/18 01:41:51;;;;;;;2.50;1.50;;;;;;;3.92;96.91;149654.69;10611893;27;20047;-71
2023/11/18 01:46:53;;;;;;;1.92;1.60;;;;;;;3.73;98.05;149605.88;10528518;22;20395;-71
2023/11/18 01:51:56;;;;;;;2.28;1.55;;;;;;;3.92;96.60;149654.69;10502101;28;20099;-71
2023/11/18 01:57:00;;;;;;;1.85;1.38;;;;;;;3.88;97.32;149643.13;10502340;28;20047;-71
2023/11/18 02:02:02;;;;;;;2.15;1.60;;;;;;;3.87;97.27;149640.56;10501220;28;20040;-71
2023/11/18 02:07:09;;;;;;;2.03;1.83;;;;;;;3.66;99.41;149587.91;10501082;28;20086;-71
2023/11/18 02:12:22;;;;;;;3.22;2.20;;;;;;;3.79;98.41;149622.56;10502757;28;20036;-71
2023/11/18 02:17:25;;;;;;;3.50;1.27;;;;;;;3.80;97.97;149625.13;10502771;28;20040;-71
2023/11/18 02:22:28;;;;;;;2.35;2.10;;;;;;;3.93;96.74;149657.22;10502510;28;20045;-71
2023/11/18 02:27:31;;;;;;;2.38;1.90;;;;;;;3.91;97.06;149652.13;10501175;28;20084;-71
2023/11/18 02:32:44;;;;;;;2.35;1.65;;;;;;;3.93;96.20;149657.22;10503294;28;20045;-71
2023/11/18 02:37:49;;;;;;;2.25;1.90;;;;;;;3.70;98.57;149598.19;10484832;28;20045;-70
2023/11/18 02:42:53;;;;;;;1.88;1.70;;;;;;;3.62;100.00;149578.91;10486070;28;20106;-70
2023/11/18 02:47:57;;;;;;;2.58;1.75;;;;;;;3.65;100.00;149586.63;10500985;28;20045;-70
2023/11/18 02:52:59;;;;;;;2.95;1.92;;;;;;;3.82;98.65;149627.72;10503054;28;20044;-70
2023/11/18 02:58:02;;;;;;;2.60;2.08;;;;;;;3.71;99.57;149600.72;10484990;28;20045;-70
2023/11/18 03:03:07;;;;;;;3.25;2.13;;;;;;;3.77;99.25;149616.16;10503079;28;20045;-69
2023/11/18 03:08:09;;;;;;;2.35;1.70;;;;;;;3.67;99.38;149591.72;10502823;28;20407;-70
2023/11/18 03:13:12;;;;;;;2.55;2.10;;;;;;;3.57;100.00;149566.06;10500409;28;20052;-70
2023/11/18 03:18:15;;;;;;;2.60;2.40;;;;;;;3.66;100.00;149589.19;10501666;28;20044;-70
2023/11/18 03:23:17;;;;;;;2.78;2.17;;;;;;;3.51;100.00;149551.94;10502835;28;20056;-71
2023/11/18 03:28:19;;;;;;;2.53;2.13;;;;;;;3.49;100.00;149546.78;10502045;28;20071;-71
2023/11/18 03:33:21;;;;;;;2.33;1.83;;;;;;;3.40;100.00;149523.69;10502624;28;20392;-71
2023/11/18 03:38:23;;;;;;;3.38;2.60;;;;;;;3.20;100.00;149473.66;10503434;28;20067;-71
2023/11/18 03:43:25;;;;;;;3.25;2.40;;;;;;;3.45;100.00;149535.25;10506295;28;20051;-71
2023/11/18 03:48:27;;;;;;;4.07;2.65;;;;;;;3.28;100.00;149492.91;10509850;28;20040;-70
2023/11/18 03:53:29;;;;;;;2.45;2.00;;;;;;;3.25;100.00;149485.19;10508251;28;20071;-70
2023/11/18 03:58:32;;;;;;;1.98;1.73;;;;;;;3.12;100.00;149451.81;10508416;28;20534;-70
2023/11/18 04:03:35;;;;;;;3.03;2.17;;;;;;;3.40;100.00;149523.69;10508538;28;20086;-70
2023/11/18 04:08:37;;;;;;;2.55;2.05;;;;;;;3.42;100.00;149528.84;10508979;28;20068;-71
2023/11/18 04:13:43;;;;;;;2.75;2.05;;;;;;;3.43;100.00;149530.13;10490937;28;20059;-71
2023/11/18 04:18:45;;;;;;;2.10;1.67;;;;;;;3.29;100.00;149495.47;10506978;28;20041;-70
2023/11/18 04:23:47;;;;;;;2.72;2.33;;;;;;;3.15;100.00;149459.53;10505619;28;20415;-71
2023/11/18 04:28:49;;;;;;;3.17;2.10;;;;;;;3.48;100.00;149542.97;10507109;28;20428;-70
2023/11/18 04:33:51;;;;;;;3.13;2.42;;;;;;;3.66;100.00;149587.91;10506550;28;20080;-70
2023/11/18 04:38:53;;;;;;;2.60;2.30;;;;;;;3.64;100.00;149582.78;10504306;28;20049;-70
2023/11/18 04:43:55;;;;;;;3.08;2.08;;;;;;;3.62;100.00;149577.63;10502271;28;20102;-70
2023/11/18 04:48:57;;;;;;;2.70;2.20;;;;;;;3.47;100.00;149541.69;10506122;28;20060;-70
2023/11/18 04:53:59;;;;;;;2.88;2.50;;;;;;;3.69;100.00;149595.63;10504361;28;20066;-70
2023/11/18 04:59:02;;;;;;;3.05;2.28;;;;;;;3.57;100.00;149566.06;10503673;28;20045;-71
2023/11/18 05:04:06;;;;;;;2.67;2.13;;;;;;;3.82;100.00;149627.72;10503789;28;20044;-69
2023/11/18 05:09:08;;;;;;;2.30;1.80;;;;;;;3.77;100.00;149617.44;10502460;28;20127;-70
2023/11/18 05:14:11;;;;;;;3.10;2.78;;;;;;;3.83;99.93;149630.28;10504023;28;20135;-70
2023/11/18 05:19:14;;;;;;;3.50;2.70;;;;;;;3.80;100.00;149625.13;10502728;28;20115;-70
2023/11/18 05:24:16;;;;;;;2.70;2.17;;;;;;;3.85;99.44;149635.41;10503744;28;20036;-70
2023/11/18 05:29:17;;;;;;;2.45;2.10;;;;;;;3.73;100.00;149605.88;10484749;28;20044;-70
2023/11/18 05:34:20;;;;;;;3.17;2.45;;;;;;;3.83;100.00;149630.28;10505483;28;20119;-69
2023/11/18 05:39:24;;;;;;;3.00;2.40;;;;;;;3.83;100.00;149631.56;10500597;28;20466;-71
2023/11/18 05:44:30;;;;;;;2.83;2.30;;;;;;;3.73;100.00;149607.16;10501281;28;20079;-71
2023/11/18 05:49:33;;;;;;;2.70;2.37;;;;;;;3.77;100.00;149617.44;10502718;28;20391;-70
2023/11/18 05:54:35;;;;;;;2.45;2.25;;;;;;;3.68;100.00;149594.34;10505329;28;20041;-71
2023/11/18 05:59:37;;;;;;;2.83;2.38;;;;;;;3.85;100.00;149636.72;10502274;28;20040;-71
2023/11/18 06:04:39;;;;;;;3.40;2.85;;;;;;;3.72;100.00;149604.63;10501886;28;20067;-70
2023/11/18 06:09:42;;;;;;;3.53;2.67;;;;;;;3.79;100.00;149621.28;10502430;28;20055;-70
2023/11/18 06:14:44;;;;;;;3.38;3.08;;;;;;;3.51;100.00;149550.69;10501576;28;20040;-70
2023/11/18 06:19:46;;;;;;;2.65;2.40;;;;;;;3.68;100.00;149594.34;10503041;28;20090;-70
2023/11/18 06:24:48;;;;;;;8.57;3.22;;;;;;;3.57;100.00;149564.78;10501263;28;20174;-71
2023/11/18 06:29:50;;;;;;;4.03;2.78;;;;;;;3.53;100.00;149555.78;10500394;28;20492;-71
2023/11/18 06:34:53;;;;;;;3.75;3.13;;;;;;;3.43;100.00;149531.41;10500911;28;20044;-71
2023/11/18 06:39:55;;;;;;;3.38;3.05;;;;;;;3.32;100.00;149501.84;10502657;28;20044;-71
2023/11/18 06:44:57;;;;;;;3.85;3.20;;;;;;;3.34;100.00;149508.28;10500418;28;20045;-71
2023/11/18 06:50:00;;;;;;;4.28;3.40;;;;;;;3.59;100.00;149571.22;10499785;28;20477;-71
2023/11/18 06:55:03;;;;;;;2.90;2.53;;;;;;;3.67;100.00;149590.44;10499399;28;20092;-71
2023/11/18 07:00:08;;;;;;;3.30;2.80;;;;;;;3.56;100.00;149563.50;10502994;28;20075;-71
2023/11/18 07:05:14;;;;;;;4.03;3.28;;;;;;;3.49;100.00;149546.78;10499245;28;20091;-71
2023/11/18 07:10:20;;;;;;;4.30;3.90;;;;;;;3.66;100.00;149587.91;10500277;28;20040;-71
2023/11/18 07:15:22;;;;;;;3.10;2.80;;;;;;;3.80;100.00;149625.13;10500584;28;20040;-71
2023/11/18 07:20:24;;;;;;;3.63;2.55;;;;;;;3.56;100.00;149562.22;10507686;28;20510;-71
2023/11/18 07:25:26;;;;;;;3.33;3.03;;;;;;;3.53;100.00;149557.06;10510875;28;20040;-72
2023/11/18 07:30:27;;;;;;;3.20;2.45;;;;;;;3.38;100.00;149518.56;10506657;28;20094;-72
2023/11/18 07:35:29;;;;;;;3.17;2.88;;;;;;;3.36;100.00;149512.13;10508961;28;20044;-71
2023/11/18 07:40:33;;;;;;;3.92;3.33;;;;;;;3.38;100.00;149517.28;10509224;28;20079;-73
2023/11/18 07:45:39;;;;;;;3.60;3.05;;;;;;;3.41;100.00;149526.28;10555310;23;20050;-72
2023/11/18 07:50:41;;;;;;;4.82;3.35;;;;;;;3.49;100.00;149546.78;10576273;28;20112;-72
2023/11/18 07:55:44;;;;;;;4.43;3.63;;;;;;;3.47;100.00;149540.41;10593561;28;20043;-74
2023/11/18 08:00:47;;;;;;;5.18;4.43;;;;;;;3.75;100.00;149612.28;10574855;28;20047;-72
2023/11/18 08:05:50;;;;;;;7.72;5.45;;;;;;;3.76;100.00;149614.88;10575423;28;20077;-73
2023/11/18 08:10:54;;;;;;;7.10;5.75;;;;;;;3.96;100.00;149663.69;10593369;28;20051;-72
2023/11/18 08:15:56;;;;;;;5.05;4.20;;;;;;;4.16;100.00;149713.75;10591475;28;20040;-72
2023/11/18 08:20:59;;;;;;;6.80;5.00;;;;;;;4.10;100.00;149698.34;10572350;28;20050;-72
2023/11/18 08:26:02;;;;;;;3.92;3.53;;;;;;;4.15;100.00;149712.47;10590739;28;20036;-72
2023/11/18 08:31:06;;;;;;;4.15;3.58;;;;;;;4.01;100.00;149676.50;10572351;28;20077;-73
2023/11/18 08:36:08;;;;;;;3.92;3.17;;;;;;;4.25;100.00;149738.19;10571768;28;20047;-72
2023/11/18 08:41:11;;;;;;;7.18;4.20;;;;;;;4.41;100.00;149778.00;10572141;28;20181;-72
2023/11/18 08:46:13;;;;;;;4.97;4.30;;;;;;;4.45;100.00;149787.00;10571490;28;20040;-72
2023/11/18 08:51:16;;;;;;;4.82;4.40;;;;;;;4.47;100.00;149793.44;10572213;28;20048;-73
2023/11/18 08:56:19;;;;;;;4.53;4.07;;;;;;;4.41;100.00;149776.72;10590973;28;20065;-72
2023/11/18 09:01:23;;;;;;;4.22;3.70;;;;;;;4.55;100.00;149812.69;10572312;28;20055;-72
2023/11/18 09:06:25;;;;;;;4.22;3.78;;;;;;;4.35;100.00;149762.59;10571993;28;20036;-72
2023/11/18 09:11:32;;;;;;;4.50;3.85;;;;;;;4.48;100.00;149794.72;10570526;28;20055;-71
2023/11/18 09:16:39;;;;;;;3.53;3.23;;;;;;;4.75;100.00;149862.84;10588769;28;20056;-72
2023/11/18 09:21:44;;;;;;;3.88;3.47;;;;;;;4.79;100.00;149874.41;10588555;28;20052;-73
2023/11/18 09:26:50;;;;;;;3.75;3.35;;;;;;;4.98;99.55;149920.66;10589375;28;20044;-72
2023/11/18 09:31:54;;;;;;;4.25;3.15;;;;;;;4.96;100.00;149916.84;10569462;28;20126;-73
2023/11/18 09:36:56;;;;;;;3.72;3.33;;;;;;;5.11;96.24;149954.09;10588143;28;20093;-73
2023/11/18 09:42:02;;;;;;;4.45;3.97;;;;;;;5.08;99.75;149946.38;10568081;28;20079;-73
2023/11/18 09:47:09;;;;;;;3.17;2.45;;;;;;;5.16;96.62;149965.66;10569026;28;20131;-72
2023/11/18 09:52:17;;;;;;;4.22;3.83;;;;;;;5.19;96.05;149973.41;10569003;28;20043;-71
2023/11/18 09:57:31;;;;;;;3.30;2.75;;;;;;;5.42;94.23;150031.25;10568385;28;20040;-73
2023/11/18 10:02:33;;;;;;;6.53;5.70;;;;;;;5.52;94.50;150058.22;10568600;28;20101;-73
2023/11/18 10:07:38;;;;;;;5.15;3.10;;;;;;;5.48;93.60;150046.66;10585363;28;20051;-71
2023/11/18 10:12:44;;;;;;;4.32;3.92;;;;;;;5.83;86.82;150135.41;10568748;28;20119;-72
2023/11/18 10:23:22;;;;;;;3.58;3.00;;;;;;;5.57;82.71;150071.09;10399295;28;20050;-72
2023/11/18 10:28:29;;;;;;;;;;;;;;;5.65;84.12;150090.41;10415918;28;20501;-71
2023/11/18 10:33:38;;;;;;;4.53;3.03;;;;;;;5.82;81.84;150134.13;10415427;28;19975;-73
2023/11/18 10:38:46;;;;;;;2.78;2.25;;;;;;;5.93;78.07;150159.91;10413948;28;20057;-73
2023/11/18 10:43:48;;;;;;;3.15;2.00;;;;;;;5.99;77.12;150175.38;10415228;28;20532;-71
2023/11/18 10:48:55;;;;;;;2.25;1.50;;;;;;;6.08;75.45;150198.53;10415278;28;20048;-72
2023/11/18 10:54:03;;;;;;;2.40;1.58;;;;;;;5.93;76.17;150159.91;10398239;28;20050;-71
2023/11/18 10:59:07;;;;;;;1.25;1.15;;;;;;;6.14;71.64;150212.66;10522728;28;20097;-71
2023/11/18 11:04:10;;;;;;;2.25;1.00;;;;;;;6.25;73.28;150241.00;10584791;28;20115;-71
2023/11/18 11:09:17;;;;;;;0.80;0.60;;;;;;;6.45;71.30;150292.44;10584978;28;20052;-72
2023/11/18 11:14:35;;;;;;;1.98;1.08;;;;;;;6.44;69.25;150289.88;10568091;28;20077;-71
2023/11/18 11:20:10;;;;;;;0.73;0.50;;;;;;;6.41;65.52;150282.13;10585134;28;20104;-71
2023/11/18 11:25:21;;;;;;;0.50;0.50;;;;;;;6.73;62.00;150363.25;10585780;28;20452;-73
2023/11/18 11:30:31;;;;;;;0.20;0.20;;;;;;;6.76;63.47;150369.66;10584848;28;20447;-72
2023/11/18 11:35:37;;;;;;;0.38;0.38;;;;;;;6.63;62.53;150337.47;10584971;28;20089;-71
2023/11/18 11:40:41;;;;;;;0.50;0.50;;;;;;;6.48;63.29;150300.19;10583987;28;20048;-70
2023/11/18 11:45:47;;;;;;;0.73;0.45;;;;;;;6.56;61.90;150320.78;10582115;28;20071;-71
2023/11/18 11:51:20;;;;;;;0.52;0.50;;;;;;;6.34;61.39;150262.88;10584918;28;20043;-71
2023/11/18 11:56:39;;;;;;;0.85;0.70;;;;;;;6.05;64.84;150192.06;10571320;28;20036;-72
2023/11/18 12:01:46;;;;;;;0.77;0.60;;;;;;;6.20;63.50;150228.13;10574442;28;20092;-74
2023/11/18 12:06:56;;;;;;;1.05;0.90;;;;;;;6.15;66.15;150215.22;10531313;28;20131;-71
2023/11/18 12:12:26;;;;;;;1.08;0.98;;;;;;;6.17;64.34;150221.69;10546022;28;20094;-71
2023/11/18 12:17:31;;;;;;;1.63;0.98;;;;;;;6.26;65.77;150244.84;10572245;28;20046;-71
2023/11/18 12:23:13;;;;;;;1.30;1.20;;;;;;;6.00;65.17;150179.22;10589589;28;20383;-71
2023/11/18 12:28:22;;;;;;;1.77;1.33;;;;;;;6.03;65.39;150185.66;10589043;28;20040;-72
2023/11/18 12:33:49;;;;;;;1.50;1.40;;;;;;;5.90;65.32;150152.16;10567266;28;20054;-71
2023/11/18 12:39:37;;;;;;;1.33;1.15;;;;;;;6.04;64.31;150189.50;10591053;28;20042;-70
2023/11/18 12:45:17;;;;;;;1.35;1.25;;;;;;;5.98;65.81;150172.78;10571737;28;20502;-71
2023/11/18 12:50:24;;;;;;;1.63;1.17;;;;;;;5.96;64.98;150167.63;10589298;28;20044;-70
2023/11/18 12:55:29;;;;;;;1.73;1.30;;;;;;;5.75;66.67;150114.81;10547313;28;20047;-70
2023/11/18 13:00:34;;;;;;;1.67;1.40;;;;;;;5.85;66.77;150139.31;10532523;28;20491;-70
2023/11/18 13:05:36;;;;;;;2.95;1.50;;;;;;;5.66;66.48;150091.66;10569025;28;20067;-72
2023/11/18 13:10:39;;;;;;;2.15;1.40;;;;;;;5.83;65.40;150135.41;10572328;28;20502;-72
2023/11/18 13:15:41;;;;;;;1.40;1.30;;;;;;;5.74;66.48;150113.53;10570541;28;20063;-74
2023/11/18 13:20:54;;;;;;;1.38;1.25;;;;;;;5.62;66.54;150081.38;10571669;28;20530;-74
2023/11/18 13:26:03;;;;;;;1.65;1.30;;;;;;;5.98;65.53;150174.09;10590147;28;20047;-73
2023/11/18 13:31:09;;;;;;;1.92;1.65;;;;;;;5.92;66.33;150158.63;10588668;28;20047;-72
2023/11/18 13:36:11;;;;;;;1.58;1.35;;;;;;;5.97;65.58;150170.19;10588600;28;20036;-73
2023/11/18 13:41:28;;;;;;;1.60;1.48;;;;;;;6.10;64.82;150203.63;10569146;28;20052;-73
2023/11/18 13:46:30;;;;;;;2.33;1.85;;;;;;;5.78;66.57;150122.56;10586262;28;20088;-72
2023/11/18 13:51:33;;;;;;;1.85;1.67;;;;;;;5.79;67.20;150126.41;10569444;28;20048;-72
2023/11/18 13:56:34;;;;;;;1.98;1.73;;;;;;;5.73;67.58;150110.97;10587622;28;20047;-73
2023/11/18 14:01:37;;;;;;;2.45;2.25;;;;;;;5.56;69.60;150068.53;10569274;28;20090;-72
2023/11/18 14:06:39;;;;;;;2.08;1.80;;;;;;;5.53;70.20;150059.50;10586973;28;20044;-72
2023/11/18 14:11:41;;;;;;;2.25;1.70;;;;;;;5.38;70.80;150020.97;10585789;28;20039;-73
2023/11/18 14:16:44;;;;;;;2.38;1.80;;;;;;;5.50;69.60;150053.13;10548605;28;20036;-73
2023/11/18 14:21:46;;;;;;;2.47;1.83;;;;;;;5.42;70.80;150032.53;10546999;28;20053;-73
2023/11/18 14:26:47;;;;;;;2.60;2.40;;;;;;;5.60;70.79;150076.25;10561004;28;20036;-74
2023/11/18 14:31:49;;;;;;;3.10;2.80;;;;;;;5.37;72.16;150019.69;10567962;28;20487;-72
2023/11/18 14:36:51;;;;;;;3.92;3.15;;;;;;;5.50;71.32;150053.13;10584983;28;20487;-72
2023/11/18 14:41:53;;;;;;;3.72;3.38;;;;;;;5.22;72.71;149982.41;10586929;28;20122;-73
2023/11/18 14:46:55;;;;;;;4.30;3.55;;;;;;;5.15;73.76;149964.38;10586140;28;20130;-73
2023/11/18 14:51:57;;;;;;;4.10;3.40;;;;;;;4.97;74.61;149919.38;10584833;28;20472;-72
2023/11/18 14:56:59;;;;;;;4.10;3.70;;;;;;;4.80;75.90;149876.97;10584021;28;20092;-73
2023/11/18 15:02:02;;;;;;;3.10;2.80;;;;;;;4.62;77.21;149829.41;10565520;28;20040;-73
2023/11/18 15:07:05;;;;;;;3.15;2.85;;;;;;;4.45;78.50;149788.28;10565211;28;20434;-73
2023/11/18 15:12:09;;;;;;;4.65;2.92;;;;;;;4.29;79.31;149747.16;10565054;28;20139;-72
2023/11/18 15:17:13;;;;;;;5.28;4.78;;;;;;;4.20;81.09;149725.31;10563644;28;20513;-72
2023/11/18 15:22:15;;;;;;;6.20;5.50;;;;;;;4.17;82.13;149716.34;10582422;28;20039;-74
2023/11/18 15:27:17;;;;;;;6.97;6.20;;;;;;;3.91;83.76;149650.84;10548040;28;20050;-72
2023/11/18 15:32:19;;;;;;;9.15;6.75;;;;;;;3.68;84.53;149594.34;10563863;28;20464;-72
2023/11/18 15:37:21;;;;;;;10.55;7.85;;;;;;;3.53;85.44;149557.06;10583001;28;20032;-72
2023/11/18 15:42:24;;;;;;;9.80;8.20;;;;;;;3.42;86.54;149528.84;10590454;28;20135;-73
2023/11/18 15:47:25;;;;;;;7.28;6.57;;;;;;;3.32;87.48;149503.19;10590519;28;20035;-74
2023/11/18 15:52:28;;;;;;;6.18;5.35;;;;;;;3.20;88.37;149473.66;10590731;28;20050;-72
2023/11/18 15:57:30;;;;;;;6.10;5.50;;;;;;;3.05;89.45;149435.09;10571199;28;20047;-73
2023/11/18 16:02:32;;;;;;;6.32;5.70;;;;;;;2.98;90.00;149418.44;10571333;28;20402;-73
2023/11/18 16:07:34;;;;;;;8.43;6.68;;;;;;;2.90;90.72;149396.63;10571019;28;20496;-73
2023/11/18 16:12:36;;;;;;;6.85;5.97;;;;;;;2.92;91.29;149401.75;10589649;28;20084;-73
2023/11/18 16:17:39;;;;;;;7.20;6.50;;;;;;;2.91;91.27;149400.47;10589455;28;20064;-73
2023/11/18 16:22:52;;;;;;;6.97;6.03;;;;;;;2.84;91.99;149381.25;10588722;28;20498;-74
2023/11/18 16:27:58;;;;;;;7.05;6.40;;;;;;;2.86;92.38;149386.38;10571000;28;20039;-74
2023/11/18 16:33:00;;;;;;;8.93;6.93;;;;;;;2.65;92.98;149335.00;10572973;28;20043;-74
2023/11/18 16:38:03;;;;;;;7.10;6.50;;;;;;;2.69;93.19;149344.00;10572003;28;20091;-72
2023/11/18 16:43:07;;;;;;;7.15;5.95;;;;;;;2.62;93.66;149326.06;10588816;28;20387;-73
2023/11/18 16:48:09;;;;;;;7.60;6.53;;;;;;;2.51;93.85;149300.38;10571970;28;20043;-74
2023/11/18 16:53:11;;;;;;;7.47;6.70;;;;;;;2.72;92.97;149353.00;10588978;28;20122;-74
2023/11/18 16:58:13;;;;;;;7.65;6.80;;;;;;;2.53;93.97;149305.53;10587737;28;20039;-74
2023/11/18 17:03:15;;;;;;;7.70;5.90;;;;;;;2.60;94.74;149320.91;10587593;28;20429;-73
2023/11/18 17:08:17;;;;;;;6.82;6.13;;;;;;;2.86;94.17;149387.63;10589700;28;20043;-73
2023/11/18 17:13:20;;;;;;;7.43;6.72;;;;;;;2.55;96.05;149309.38;10552161;28;20079;-73
2023/11/18 17:18:21;;;;;;;8.05;6.05;;;;;;;2.79;96.27;149369.72;10586935;28;20028;-73
2023/11/18 17:23:24;;;;;;;8.15;7.35;;;;;;;2.82;95.21;149377.38;10569910;28;20485;-73
2023/11/18 17:28:26;;;;;;;8.70;7.55;;;;;;;2.69;96.38;149344.00;10586493;28;20474;-73
2023/11/18 17:33:28;;;;;;;7.88;7.05;;;;;;;2.76;96.09;149363.25;10568282;28;20048;-74
2023/11/18 17:38:32;;;;;;;8.02;7.15;;;;;;;2.69;97.36;149344.00;10586871;28;20044;-73
2023/11/18 17:43:35;;;;;;;6.85;6.05;;;;;;;2.74;96.75;149356.81;10585874;28;20052;-73
2023/11/18 17:48:37;;;;;;;7.00;6.30;;;;;;;2.73;97.74;149354.28;10585981;28;20067;-74
2023/11/18 17:53:39;;;;;;;6.45;5.72;;;;;;;2.91;96.01;149400.47;10567723;28;20444;-74
2023/11/18 17:58:41;;;;;;;7.38;6.55;;;;;;;3.01;96.84;149426.16;10584286;28;20067;-74
2023/11/18 18:03:43;;;;;;;6.82;6.05;;;;;;;3.06;96.59;149436.44;10565446;28;20043;-74
2023/11/18 18:08:44;;;;;;;6.30;5.65;;;;;;;3.01;96.60;149426.16;10584680;28;20039;-74
2023/11/18 18:13:46;;;;;;;6.68;6.00;;;;;;;2.90;97.00;149396.63;10566469;28;20044;-73
2023/11/18 18:18:48;;;;;;;7.38;6.68;;;;;;;2.92;96.88;149403.06;10566608;28;20054;-73
2023/11/18 18:23:50;;;;;;;7.30;6.45;;;;;;;2.99;96.36;149421.00;10567764;28;20142;-74
2023/11/18 18:28:52;;;;;;;6.38;5.57;;;;;;;3.22;94.86;149477.47;10585397;28;20040;-74
2023/11/18 18:33:56;;;;;;;9.00;6.60;;;;;;;2.91;96.63;149400.47;10586050;28;20043;-73
2023/11/18 18:38:58;;;;;;;9.18;6.25;;;;;;;2.94;97.01;149408.19;10566499;28;20457;-74
2023/11/18 18:44:01;;;;;;;7.68;6.63;;;;;;;3.34;94.44;149508.28;10585994;28;20040;-74
2023/11/18 18:49:03;;;;;;;7.85;7.10;;;;;;;3.61;91.48;149575.06;10567626;28;20064;-73
2023/11/18 18:54:05;;;;;;;7.13;6.40;;;;;;;3.45;91.35;149535.25;10567275;28;20108;-74
2023/11/18 18:59:10;;;;;;;6.80;6.20;;;;;;;3.31;92.78;149500.56;10568147;28;20051;-74
2023/11/18 19:04:12;;;;;;;7.75;6.95;;;;;;;3.19;93.01;149469.81;10585058;28;20063;-74
2023/11/18 19:09:17;;;;;;;6.80;6.07;;;;;;;3.48;90.09;149544.25;10584411;28;20047;-74
2023/11/18 19:14:19;;;;;;;6.03;5.45;;;;;;;3.41;89.41;149524.97;10590256;28;20040;-74
2023/11/18 19:19:21;;;;;;;5.53;5.03;;;;;;;3.25;90.74;149485.19;10592420;28;20044;-73
2023/11/18 19:24:23;;;;;;;5.47;4.97;;;;;;;3.19;90.84;149469.81;10573706;28;20052;-74
2023/11/18 19:29:25;;;;;;;5.00;4.50;;;;;;;3.29;90.73;149496.75;10592062;28;20079;-73
2023/11/18 19:34:27;;;;;;;8.13;5.70;;;;;;;3.23;91.71;149481.34;10574452;28;20142;-74
2023/11/18 19:39:29;;;;;;;8.63;5.90;;;;;;;3.28;91.16;149494.19;10592238;28;20071;-74
2023/11/18 19:44:30;;;;;;;6.00;5.45;;;;;;;3.33;91.40;149505.75;10573466;28;20067;-75
2023/11/18 19:49:33;;;;;;;5.68;5.18;;;;;;;3.31;92.05;149499.31;10592508;28;20044;-75
2023/11/18 19:54:35;;;;;;;7.63;5.75;;;;;;;3.28;91.32;149492.91;10592111;28;20047;-75
2023/11/18 19:59:37;;;;;;;5.88;5.32;;;;;;;3.27;91.91;149491.59;10573197;28;20051;-74
2023/11/18 20:04:41;;;;;;;7.45;6.63;;;;;;;3.20;92.10;149473.66;10593329;28;20043;-75
2023/11/18 20:09:43;;;;;;;5.43;4.88;;;;;;;3.01;95.26;149424.84;10575828;28;20061;-74
2023/11/18 20:14:46;;;;;;;7.22;5.38;;;;;;;3.08;95.65;149441.53;10593615;28;20131;-75
2023/11/18 20:19:48;;;;;;;5.20;4.70;;;;;;;3.23;93.55;149481.34;10593801;28;20135;-75
2023/11/18 20:24:50;;;;;;;6.43;5.70;;;;;;;3.36;93.71;149512.13;10595239;28;20051;-75
2023/11/18 20:29:52;;;;;;;5.40;4.90;;;;;;;3.25;94.32;149485.19;10595131;28;20039;-77
2023/11/18 20:34:54;;;;;;;5.45;4.65;;;;;;;3.40;91.71;149523.69;10592997;28;20047;-74
2023/11/18 20:39:56;;;;;;;9.10;5.13;;;;;;;3.43;91.98;149530.13;10575436;28;20527;-74
2023/11/18 20:44:58;;;;;;;5.22;4.72;;;;;;;3.54;90.42;149558.34;10573582;28;20058;-74
2023/11/18 20:50:01;;;;;;;6.35;5.47;;;;;;;3.49;91.41;149546.78;10572846;28;20043;-74
2023/11/18 20:55:03;;;;;;;5.75;4.90;;;;;;;3.41;92.51;149526.28;10571971;28;20100;-75
2023/11/18 21:00:07;;;;;;;6.05;4.95;;;;;;;3.50;91.45;149548.13;10572560;28;20043;-71
2023/11/18 21:05:09;;;;;;;5.80;5.15;;;;;;;3.57;91.28;149564.78;10575796;28;20054;-71
2023/11/18 21:10:15;;;;;;;7.18;4.85;;;;;;;3.69;90.24;149595.63;10577790;28;20044;-71
2023/11/18 21:15:19;;;;;;;4.80;4.35;;;;;;;3.66;90.48;149589.19;10594355;28;20115;-72
2023/11/18 21:20:21;;;;;;;6.13;5.18;;;;;;;3.53;91.82;149555.78;10573895;28;20050;-72
2023/11/18 21:25:23;;;;;;;6.20;4.10;;;;;;;3.53;91.19;149555.78;10591137;28;20101;-72
2023/11/18 21:30:25;;;;;;;5.65;5.13;;;;;;;3.60;90.04;149573.78;10593445;28;20120;-70
2023/11/18 21:35:27;;;;;;;5.88;4.97;;;;;;;3.48;91.85;149544.25;10576098;28;20043;-72
2023/11/18 21:40:30;;;;;;;6.30;5.60;;;;;;;3.54;91.79;149559.66;10595198;28;20489;-71
2023/11/18 21:45:32;;;;;;;5.50;4.97;;;;;;;3.73;90.38;149607.16;10594313;28;20051;-70
2023/11/18 21:50:34;;;;;;;5.13;4.63;;;;;;;3.73;90.36;149605.88;10577112;28;20043;-71
2023/11/18 21:55:37;;;;;;;5.40;5.00;;;;;;;3.76;90.22;149613.56;10593078;28;20052;-71
2023/11/18 22:00:39;;;;;;;5.90;5.32;;;;;;;3.79;89.69;149621.28;10576657;28;20089;-71
2023/11/18 22:05:44;;;;;;;5.65;5.05;;;;;;;3.80;89.21;149623.84;10591980;28;20442;-71
2023/11/18 22:10:47;;;;;;;5.75;4.55;;;;;;;3.79;89.57;149621.28;10573551;28;20518;-71
2023/11/18 22:15:50;;;;;;;5.30;4.80;;;;;;;3.91;88.46;149652.13;10593455;28;20043;-71
2023/11/18 22:20:52;;;;;;;5.28;4.53;;;;;;;3.69;89.91;149595.63;10574177;28;20407;-71
2023/11/18 22:25:54;;;;;;;5.28;4.05;;;;;;;3.74;90.53;149609.72;10590946;28;20040;-71
2023/11/18 22:30:56;;;;;;;4.40;3.95;;;;;;;3.72;91.59;149603.34;10571616;28;20108;-72
2023/11/18 22:35:58;;;;;;;4.03;3.63;;;;;;;3.87;90.05;149641.84;10590048;28;20039;-72
2023/11/18 22:41:00;;;;;;;4.47;4.00;;;;;;;3.83;91.53;149631.56;10591397;28;20043;-72
2023/11/18 22:46:05;;;;;;;4.47;4.07;;;;;;;3.82;93.17;149629.00;10571893;28;20039;-71
2023/11/18 22:51:06;;;;;;;5.07;4.57;;;;;;;3.82;95.47;149629.00;10571106;28;20044;-72
2023/11/18 22:56:09;;;;;;;4.90;4.13;;;;;;;3.56;99.17;149562.22;10589713;28;20380;-70
2023/11/18 23:01:11;;;;;;;5.05;4.55;;;;;;;3.53;100.00;149557.06;10569580;28;20051;-73
2023/11/18 23:06:19;;;;;;;4.53;4.03;;;;;;;3.54;100.00;149558.34;10586147;28;20043;-73
2023/11/18 23:11:22;;;;;;;5.53;4.97;;;;;;;3.66;100.00;149589.19;10586178;28;20108;-74
2023/11/18 23:16:25;;;;;;;5.20;4.70;;;;;;;3.87;100.00;149641.84;10566250;28;20097;-73
2023/11/18 23:21:29;;;;;;;6.28;5.45;;;;;;;3.58;100.00;149567.34;10583945;28;20083;-73
2023/11/18 23:26:31;;;;;;;5.32;4.82;;;;;;;3.60;100.00;149573.78;10583063;28;20411;-74
2023/11/18 23:31:33;;;;;;;5.50;5.00;;;;;;;3.94;100.00;149659.84;10564595;28;20050;-73